Allegheny, Pennsylvania
Current Conditions -  °F | °C
As of 9:13 AM on Sunday 25 Jan 2015 (Local Time) from KAGC Reporting Station
Haze Haze  
Wind Chill: 28°   Ceiling: 1400
Heat Index: 33°   Visibility: 3mi
Dew Point: 28°   Wind: 6mph
Humidity: 82%   Direction: 230°SW
Pressure: 29.75"   Gusts: NA
Location:  40.4725°N, 80.0082°W
Report Text: KAGC 251413Z 23005KT 3SM HZ BKN014 OVC031 01/M02 A2975 RMK AO2 T00061022
Loading
Personal Weather Stations






























Interactive Weather Map New forecast layout! Learn more

10-Day Weather Forecast

Advertisements
Track Severe Weather on mobile